createdAt,value
2023-04-15T00:01:02.623Z,99314.88
2023-04-15T00:03:30.027Z,99322.59
2023-04-15T00:05:58.257Z,99327.88
2023-04-15T00:08:25.570Z,99322.66
2023-04-15T00:10:53.202Z,99319.13
2023-04-15T00:13:20.297Z,99323.16
2023-04-15T00:15:48.056Z,99329.16
2023-04-15T00:18:14.816Z,99331.25
2023-04-15T00:20:41.887Z,99330.41
2023-04-15T00:23:08.638Z,99329.47
2023-04-15T00:25:35.692Z,99338.16
2023-04-15T00:28:02.723Z,99324.84
2023-04-15T00:30:29.882Z,99319.75
2023-04-15T00:32:56.790Z,99327.78
2023-04-15T00:35:24.533Z,99318.25
2023-04-15T00:37:51.582Z,99314.81
2023-04-15T00:40:21.046Z,99323.66
2023-04-15T00:42:48.223Z,99322.66
2023-04-15T00:45:15.822Z,99323.66
2023-04-15T00:47:43.802Z,99313.97
2023-04-15T00:50:12.583Z,99317.41
2023-04-15T00:52:40.980Z,99311.25
2023-04-15T00:55:08.835Z,99310.22
2023-04-15T00:57:36.282Z,99317.31
2023-04-15T01:00:04.802Z,99317.41
2023-04-15T01:02:32.804Z,99300.03
2023-04-15T01:05:00.531Z,99307.38
2023-04-15T01:07:27.909Z,99299.44
2023-04-15T01:09:55.679Z,99303.06
2023-04-15T01:12:23.277Z,99294.31
2023-04-15T01:14:50.835Z,99305.44
2023-04-15T01:17:17.804Z,99293.97
2023-04-15T01:19:44.898Z,99298.50
2023-04-15T01:22:11.848Z,99301.81
2023-04-15T01:24:39.920Z,99302.72
2023-04-15T01:27:06.695Z,99288.78
2023-04-15T01:29:38.446Z,99293.03
2023-04-15T01:32:05.820Z,99303.50
2023-04-15T01:34:35.557Z,99298.06
2023-04-15T01:37:02.596Z,99305.19
2023-04-15T01:39:29.620Z,99306.94
2023-04-15T01:41:57.329Z,99305.28
2023-04-15T01:44:24.418Z,99311.34
2023-04-15T01:46:51.241Z,99314.13
2023-04-15T01:49:19.016Z,99313.88
2023-04-15T01:51:45.893Z,99304.06
2023-04-15T01:54:12.966Z,99312.09
2023-04-15T01:56:39.802Z,99306.59
2023-04-15T01:59:06.869Z,99308.19
2023-04-15T02:01:34.100Z,99313.63
2023-04-15T02:04:01.239Z,99314.63
2023-04-15T02:06:28.317Z,99308.53
2023-04-15T02:08:55.466Z,99314.47
2023-04-15T02:11:23.175Z,99310.13
2023-04-15T02:13:50.326Z,99313.44
2023-04-15T02:16:21.413Z,99312.50
2023-04-15T02:18:48.617Z,99310.63
2023-04-15T02:21:15.387Z,99312.41
2023-04-15T02:23:44.041Z,99314.28
2023-04-15T02:26:11.034Z,99308.00
2023-04-15T02:28:38.288Z,99302.78
2023-04-15T02:31:08.234Z,99307.84
2023-04-15T02:33:35.694Z,99312.16
2023-04-15T02:36:02.604Z,99322.88
2023-04-15T02:38:31.018Z,99330.72
2023-04-15T02:40:57.861Z,99328.44
2023-04-15T02:43:24.972Z,99319.59
2023-04-15T02:45:52.279Z,99325.56
2023-04-15T02:48:20.446Z,99320.09
2023-04-15T02:50:48.014Z,99322.53
2023-04-15T02:53:15.489Z,99324.69
2023-04-15T02:55:43.036Z,99327.31
2023-04-15T02:58:10.241Z,99320.50
2023-04-15T03:00:37.065Z,99324.69
2023-04-15T03:03:06.180Z,99318.50
2023-04-15T03:05:33.325Z,99314.09
2023-04-15T03:08:01.414Z,99314.09
2023-04-15T03:10:28.573Z,99313.75
2023-04-15T03:12:55.718Z,99312.91
2023-04-15T03:15:23.128Z,99305.31
2023-04-15T03:17:50.658Z,99301.94
2023-04-15T03:20:17.571Z,99295.91
2023-04-15T03:22:44.692Z,99310.72
2023-04-15T03:25:11.486Z,99315.03
2023-04-15T03:27:38.815Z,99312.31
2023-04-15T03:30:06.757Z,99302.84
2023-04-15T03:32:33.872Z,99306.25
2023-04-15T03:35:00.835Z,99309.50
2023-04-15T03:37:27.979Z,99313.75
2023-04-15T03:39:54.806Z,99310.00
2023-04-15T03:42:21.857Z,99315.44
2023-04-15T03:44:48.721Z,99323.00
2023-04-15T03:47:15.786Z,99319.19
2023-04-15T03:49:42.547Z,99323.41
2023-04-15T03:52:09.757Z,99315.72
2023-04-15T03:54:36.773Z,99320.03
2023-04-15T03:57:03.848Z,99305.56
2023-04-15T03:59:31.919Z,99310.31
2023-04-15T04:01:59.029Z,99312.09
2023-04-15T04:04:26.124Z,99312.25
2023-04-15T04:06:53.227Z,99307.78
2023-04-15T04:09:20.027Z,99316.66
2023-04-15T04:11:47.044Z,99310.78
2023-04-15T04:14:13.811Z,99310.50
2023-04-15T04:16:41.188Z,99314.88
2023-04-15T04:19:08.016Z,99317.00
2023-04-15T04:21:35.205Z,99310.78
2023-04-15T04:24:02.171Z,99308.06
2023-04-15T04:26:29.241Z,99305.34
2023-04-15T04:28:56.228Z,99310.38
2023-04-15T04:31:23.366Z,99311.06
2023-04-15T04:33:50.212Z,99303.03
2023-04-15T04:36:17.256Z,99299.03
2023-04-15T04:38:44.099Z,99301.72
2023-04-15T04:41:11.205Z,99299.03
2023-04-15T04:43:37.965Z,99300.25
2023-04-15T04:46:05.105Z,99305.03
2023-04-15T04:48:31.875Z,99310.09
2023-04-15T04:50:59.313Z,99310.56
2023-04-15T04:53:26.433Z,99307.41
2023-04-15T04:55:53.711Z,99306.94
2023-04-15T04:58:20.660Z,99305.53
2023-04-15T05:00:47.918Z,99302.44
2023-04-15T05:03:14.951Z,99300.63
2023-04-15T05:05:42.197Z,99304.72
2023-04-15T05:08:08.970Z,99299.47
2023-04-15T05:10:36.353Z,99310.19
2023-04-15T05:13:03.152Z,99311.03
2023-04-15T05:15:30.393Z,99315.63
2023-04-15T05:17:57.656Z,99312.69
2023-04-15T05:20:24.752Z,99308.81
2023-04-15T05:22:51.512Z,99304.16
2023-04-15T05:25:18.610Z,99316.25
2023-04-15T05:27:45.867Z,99308.28
2023-04-15T05:30:13.813Z,99300.03
2023-04-15T05:32:40.978Z,99310.88
2023-04-15T05:35:08.634Z,99307.50
2023-04-15T05:37:36.188Z,99314.22
2023-04-15T05:40:04.439Z,99314.13
2023-04-15T05:42:31.455Z,99313.03
2023-04-15T05:44:58.480Z,99319.63
2023-04-15T05:47:25.320Z,99323.50
2023-04-15T05:49:52.403Z,99320.69
2023-04-15T05:52:19.180Z,99324.81
2023-04-15T05:54:46.653Z,99324.66
2023-04-15T05:57:13.429Z,99325.72
2023-04-15T05:59:42.145Z,99330.00
2023-04-15T06:02:10.651Z,99331.47
2023-04-15T06:04:37.862Z,99325.22
2023-04-15T06:07:04.836Z,99334.38
2023-04-15T06:09:31.892Z,99339.00
2023-04-15T06:11:59.213Z,99338.59
2023-04-15T06:14:26.349Z,99336.59
2023-04-15T06:16:53.163Z,99344.41
2023-04-15T06:19:20.576Z,99345.53
2023-04-15T06:21:47.485Z,99345.31
2023-04-15T06:24:14.709Z,99350.13
2023-04-15T06:26:41.596Z,99350.78
2023-04-15T06:29:08.688Z,99358.59
2023-04-15T06:31:35.935Z,99361.97
2023-04-15T06:34:03.085Z,99360.34
2023-04-15T06:36:29.948Z,99360.25
2023-04-15T06:38:57.647Z,99367.09
2023-04-15T06:41:24.628Z,99367.69
2023-04-15T06:43:51.723Z,99366.66
2023-04-15T06:46:19.011Z,99369.47
2023-04-15T06:48:46.142Z,99371.19
2023-04-15T06:51:13.067Z,99375.06
2023-04-15T06:53:42.011Z,99383.09
2023-04-15T06:56:09.637Z,99378.19
2023-04-15T06:58:36.901Z,99364.78
2023-04-15T07:01:04.500Z,99370.47
2023-04-15T07:03:32.834Z,99374.53
2023-04-15T07:05:59.932Z,99370.03
2023-04-15T07:08:27.003Z,99382.13
2023-04-15T07:10:54.197Z,99377.00
2023-04-15T07:13:21.273Z,99372.75
2023-04-15T07:15:48.087Z,99369.53
2023-04-15T07:18:15.422Z,99377.19
2023-04-15T07:20:43.138Z,99377.94
2023-04-15T07:23:10.184Z,99376.97
2023-04-15T07:25:37.001Z,99377.06
2023-04-15T07:28:04.157Z,99375.72
2023-04-15T07:30:30.935Z,99381.19
2023-04-15T07:32:58.904Z,99378.44
2023-04-15T07:35:26.663Z,99379.56
2023-04-15T07:37:54.054Z,99382.38
2023-04-15T07:40:24.378Z,99385.94
2023-04-15T07:42:51.499Z,99381.16
2023-04-15T07:45:18.341Z,99389.22
2023-04-15T07:47:45.460Z,99395.16
2023-04-15T07:50:12.370Z,99391.41
2023-04-15T07:52:39.550Z,99383.88
2023-04-15T07:55:08.468Z,99386.47
2023-04-15T07:57:36.893Z,99386.91
2023-04-15T08:00:07.565Z,99376.22
2023-04-15T08:02:36.817Z,99384.22
2023-04-15T08:05:05.308Z,99380.50
2023-04-15T08:07:32.675Z,99389.47
2023-04-15T08:09:59.452Z,99391.19
2023-04-15T08:12:26.524Z,99386.41
2023-04-15T08:14:53.313Z,99394.06
2023-04-15T08:17:20.732Z,99389.44
2023-04-15T08:19:48.407Z,99389.63
2023-04-15T08:22:18.042Z,99385.06
2023-04-15T08:24:45.847Z,99390.19
2023-04-15T08:27:15.918Z,99386.84
2023-04-15T08:29:42.816Z,99396.09
2023-04-15T08:32:09.902Z,99393.91
2023-04-15T08:34:36.861Z,99397.41
2023-04-15T08:37:03.947Z,99398.16
2023-04-15T08:39:31.133Z,99395.66
2023-04-15T08:42:03.574Z,99395.59
2023-04-15T08:44:34.102Z,99408.25
2023-04-15T08:47:06.128Z,99401.75
2023-04-15T08:49:34.907Z,99406.34
2023-04-15T08:52:04.463Z,99405.75
2023-04-15T08:54:31.562Z,99400.03
2023-04-15T08:56:58.828Z,99413.34
2023-04-15T08:59:25.797Z,99418.94
2023-04-15T09:01:53.590Z,99410.88
2023-04-15T09:04:20.625Z,99407.03
2023-04-15T09:06:47.763Z,99410.41
2023-04-15T09:09:14.656Z,99403.69
2023-04-15T09:11:42.471Z,99412.56
2023-04-15T09:14:09.682Z,99410.28
2023-04-15T09:16:59.499Z,99418.06
2023-04-15T09:19:27.206Z,99414.59
2023-04-15T09:21:58.893Z,99418.94
2023-04-15T09:24:33.723Z,99419.03
2023-04-15T09:27:01.133Z,99419.50
2023-04-15T09:29:28.008Z,99412.44
2023-04-15T09:31:55.117Z,99410.28
2023-04-15T09:34:22.590Z,99407.88
2023-04-15T09:36:55.035Z,99405.59
2023-04-15T09:39:21.961Z,99416.31
2023-04-15T09:42:08.199Z,99409.75
2023-04-15T09:44:35.722Z,99407.50
2023-04-15T09:47:02.813Z,99410.63
2023-04-15T09:49:29.858Z,99408.34
2023-04-15T09:52:05.768Z,99409.09
2023-04-15T09:54:35.512Z,99411.94
2023-04-15T09:57:12.351Z,99416.63
2023-04-15T09:59:39.530Z,99413.13
2023-04-15T10:02:07.508Z,99422.72
2023-04-15T10:04:37.164Z,99411.94
2023-04-15T10:07:06.243Z,99416.34
2023-04-15T10:09:35.488Z,99415.03
2023-04-15T10:12:04.817Z,99427.44
2023-04-15T10:14:36.450Z,99417.81
2023-04-15T10:17:05.215Z,99418.44
2023-04-15T10:19:34.284Z,99433.81
2023-04-15T10:22:02.140Z,99423.38
2023-04-15T10:24:31.161Z,99425.28
2023-04-15T10:27:00.301Z,99422.00
2023-04-15T10:29:29.869Z,99429.31
2023-04-15T10:31:59.898Z,99432.84
2023-04-15T10:34:27.677Z,99421.53
2023-04-15T10:37:04.610Z,99432.25
2023-04-15T10:39:34.490Z,99441.31
2023-04-15T10:42:16.163Z,99429.00
2023-04-15T10:44:45.206Z,99423.72
2023-04-15T10:47:20.479Z,99428.88
2023-04-15T10:49:51.228Z,99432.63
2023-04-15T10:52:23.766Z,99434.19
2023-04-15T10:54:50.807Z,99438.13
2023-04-15T10:57:24.095Z,99437.28
2023-04-15T11:00:00.056Z,99450.16
2023-04-15T11:02:47.295Z,99441.44
2023-04-15T11:05:16.210Z,99448.78
2023-04-15T11:07:56.168Z,99450.81
2023-04-15T11:10:26.002Z,99462.59
2023-04-15T11:12:57.316Z,99465.66
2023-04-15T11:15:35.188Z,99461.91
2023-04-15T11:18:23.027Z,99463.41
2023-04-15T11:20:56.580Z,99464.34
2023-04-15T11:23:34.792Z,99468.72
2023-04-15T11:26:05.564Z,99457.88
2023-04-15T11:28:33.178Z,99458.97
2023-04-15T11:31:11.362Z,99452.41
2023-04-15T11:33:46.099Z,99462.03
2023-04-15T11:36:13.905Z,99458.16
2023-04-15T11:38:45.118Z,99457.84
2023-04-15T11:41:11.866Z,99455.91
2023-04-15T11:43:39.096Z,99459.59
2023-04-15T11:46:06.059Z,99463.56
2023-04-15T11:48:35.781Z,99461.28
2023-04-15T11:51:07.582Z,99465.78
2023-04-15T11:53:42.165Z,99466.81
2023-04-15T11:56:23.818Z,99471.19
2023-04-15T11:59:02.314Z,99467.25
2023-04-15T12:01:36.463Z,99467.25
2023-04-15T12:04:11.989Z,99470.47
2023-04-15T12:06:39.233Z,99472.72
2023-04-15T12:09:12.426Z,99462.72
2023-04-15T12:11:51.057Z,99465.50
2023-04-15T12:14:25.599Z,99477.63
2023-04-15T12:16:54.375Z,99463.81
2023-04-15T12:19:48.468Z,99468.53
2023-04-15T12:22:17.123Z,99476.78
2023-04-15T12:24:48.982Z,99464.72
2023-04-15T12:27:17.056Z,99468.06
2023-04-15T12:29:44.402Z,99477.69
2023-04-15T12:32:12.226Z,99475.19
2023-04-15T12:34:45.106Z,99481.38
2023-04-15T12:37:16.035Z,99471.19
2023-04-15T12:39:45.950Z,99480.03
2023-04-15T12:42:13.024Z,99481.09
2023-04-15T12:44:40.703Z,99478.31
2023-04-15T12:47:09.326Z,99485.88
2023-04-15T12:49:36.404Z,99476.75
2023-04-15T12:52:04.185Z,99486.00
2023-04-15T12:54:32.288Z,99490.78
2023-04-15T12:56:59.449Z,99488.44
2023-04-15T12:59:26.608Z,99490.31
2023-04-15T13:01:54.609Z,99490.81
2023-04-15T13:04:22.499Z,99493.81
2023-04-15T13:06:49.785Z,99497.88
2023-04-15T13:09:16.967Z,99498.38
2023-04-15T13:11:43.825Z,99492.94
2023-04-15T13:14:14.175Z,99495.75
2023-04-15T13:16:41.503Z,99498.75
2023-04-15T13:19:08.796Z,99490.47
2023-04-15T13:21:37.543Z,99497.41
2023-04-15T13:24:07.245Z,99502.09
2023-04-15T13:26:34.207Z,99497.09
2023-04-15T13:29:01.387Z,99500.22
2023-04-15T13:31:28.262Z,99499.13
2023-04-15T13:33:57.181Z,99501.13
2023-04-15T13:36:24.162Z,99501.22
2023-04-15T13:38:51.664Z,99492.97
2023-04-15T13:41:18.786Z,99497.22
2023-04-15T13:43:46.305Z,99493.25
2023-04-15T13:46:14.050Z,99509.34
2023-04-15T13:48:41.433Z,99502.84
2023-04-15T13:51:08.207Z,99507.63
2023-04-15T13:53:38.441Z,99514.09
2023-04-15T13:56:10.117Z,99513.38
2023-04-15T13:58:38.211Z,99516.94
2023-04-15T14:01:07.115Z,99521.38
2023-04-15T14:03:35.848Z,99512.16
2023-04-15T14:06:03.110Z,99521.59
2023-04-15T14:08:30.237Z,99518.44
2023-04-15T14:10:57.723Z,99523.25
2023-04-15T14:13:25.078Z,99521.94
2023-04-15T14:15:51.997Z,99525.19
2023-04-15T14:18:19.226Z,99524.59
2023-04-15T14:20:46.182Z,99524.13
2023-04-15T14:23:13.283Z,99525.34
2023-04-15T14:25:40.077Z,99532.19
2023-04-15T14:28:07.160Z,99530.13
2023-04-15T14:30:34.076Z,99525.81
2023-04-15T14:33:01.205Z,99531.19
2023-04-15T14:35:28.098Z,99537.78
2023-04-15T14:37:55.720Z,99533.81
2023-04-15T14:40:22.811Z,99537.84
2023-04-15T14:42:49.947Z,99542.16
2023-04-15T14:45:17.723Z,99552.34
2023-04-15T14:47:45.092Z,99558.13
2023-04-15T14:50:12.282Z,99545.75
2023-04-15T14:52:40.673Z,99548.78
2023-04-15T14:55:10.394Z,99558.84
2023-04-15T14:57:38.585Z,99546.22
2023-04-15T15:00:07.372Z,99553.22
2023-04-15T15:02:39.700Z,99547.56
2023-04-15T15:05:08.699Z,99546.78
2023-04-15T15:07:40.685Z,99553.34
2023-04-15T15:10:08.184Z,99544.09
2023-04-15T15:12:35.517Z,99560.44
2023-04-15T15:15:12.480Z,99562.19
2023-04-15T15:17:47.076Z,99553.69
2023-04-15T15:20:13.927Z,99565.22
2023-04-15T15:22:40.981Z,99560.84
2023-04-15T15:25:07.877Z,99571.78
2023-04-15T15:27:36.519Z,99571.06
2023-04-15T15:30:06.863Z,99572.16
2023-04-15T15:32:34.110Z,99588.56
2023-04-15T15:35:00.978Z,99579.34
2023-04-15T15:37:32.839Z,99589.16
2023-04-15T15:40:00.968Z,99595.53
2023-04-15T15:42:31.793Z,99593.28
2023-04-15T15:44:59.052Z,99602.03
2023-04-15T15:47:26.941Z,99601.59
2023-04-15T15:49:55.000Z,99597.13
2023-04-15T15:52:22.206Z,99603.81
2023-04-15T15:54:51.680Z,99605.59
2023-04-15T15:57:18.750Z,99612.03
2023-04-15T15:59:46.326Z,99620.91
2023-04-15T16:02:16.757Z,99621.34
2023-04-15T16:04:43.690Z,99622.44
2023-04-15T16:07:15.774Z,99622.19
2023-04-15T16:09:42.684Z,99623.91
2023-04-15T16:12:09.773Z,99624.75
2023-04-15T16:14:36.646Z,99626.56
2023-04-15T16:17:03.710Z,99632.38
2023-04-15T16:19:31.023Z,99638.09
2023-04-15T16:21:58.313Z,99636.63
2023-04-15T16:24:25.839Z,99636.41
2023-04-15T16:26:52.939Z,99637.28
2023-04-15T16:29:19.740Z,99638.84
2023-04-15T16:31:47.549Z,99639.38
2023-04-15T16:34:15.888Z,99631.16
2023-04-15T16:36:43.161Z,99643.88
2023-04-15T16:39:09.928Z,99638.56
2023-04-15T16:41:38.522Z,99633.16
2023-04-15T16:44:06.589Z,99639.38
2023-04-15T16:46:33.691Z,99639.59
2023-04-15T16:49:00.894Z,99647.38
2023-04-15T16:51:30.461Z,99646.09
2023-04-15T16:53:57.366Z,99648.88
2023-04-15T16:56:24.453Z,99663.13
2023-04-15T16:58:51.241Z,99669.00
2023-04-15T17:01:18.632Z,99667.59
2023-04-15T17:03:47.721Z,99669.53
2023-04-15T17:06:16.111Z,99672.16
2023-04-15T17:08:44.185Z,99681.59
2023-04-15T17:11:11.864Z,99681.69
2023-04-15T17:13:38.982Z,99689.16
2023-04-15T17:16:06.479Z,99687.44
2023-04-15T17:18:33.329Z,99683.53
2023-04-15T17:21:00.558Z,99693.66
2023-04-15T17:23:27.404Z,99700.75
2023-04-15T17:25:54.540Z,99700.19
2023-04-15T17:28:21.508Z,99703.47
2023-04-15T17:30:48.697Z,99706.91
2023-04-15T17:33:57.661Z,99708.88
2023-04-15T17:36:02.830Z,99719.78
2023-04-15T17:38:29.708Z,99721.25
2023-04-15T17:40:56.891Z,99709.78
2023-04-15T17:43:24.189Z,99712.72
2023-04-15T17:45:51.404Z,99718.72
2023-04-15T17:48:18.191Z,99725.38
2023-04-15T17:50:45.247Z,99728.53
2023-04-15T17:53:12.049Z,99729.44
2023-04-15T17:55:39.122Z,99728.88
2023-04-15T17:58:05.969Z,99733.50
2023-04-15T18:00:33.105Z,99738.81
2023-04-15T18:03:00.055Z,99741.31
2023-04-15T18:05:27.292Z,99747.31
2023-04-15T18:07:54.291Z,99746.47
2023-04-15T18:10:21.759Z,99747.31
2023-04-15T18:12:48.553Z,99754.47
2023-04-15T18:15:15.822Z,99756.44
2023-04-15T18:17:42.810Z,99759.38
2023-04-15T18:20:10.618Z,99760.22
2023-04-15T18:22:37.481Z,99760.91
2023-04-15T18:25:05.117Z,99756.88
2023-04-15T18:27:33.851Z,99771.16
2023-04-15T18:30:00.927Z,99774.00
2023-04-15T18:32:31.264Z,99775.13
2023-04-15T18:34:59.005Z,99775.25
2023-04-15T18:37:29.245Z,99786.59
2023-04-15T18:39:56.733Z,99780.59
2023-04-15T18:42:24.669Z,99797.44
2023-04-15T18:44:53.067Z,99793.41
2023-04-15T18:47:20.327Z,99807.78
2023-04-15T18:49:47.559Z,99806.28
2023-04-15T18:52:14.391Z,99811.84
2023-04-15T18:54:41.482Z,99813.91
2023-04-15T18:57:08.271Z,99822.16
2023-04-15T18:59:35.607Z,99825.84
2023-04-15T19:02:06.436Z,99834.00
2023-04-15T19:04:33.667Z,99821.31
2023-04-15T19:07:01.677Z,99837.09
2023-04-15T19:09:29.352Z,99841.75
2023-04-15T19:11:56.951Z,99836.03
2023-04-15T19:14:24.659Z,99845.69
2023-04-15T19:16:51.612Z,99850.78
2023-04-15T19:19:19.018Z,99854.03
2023-04-15T19:21:47.554Z,99861.00
2023-04-15T19:24:14.762Z,99860.81
2023-04-15T19:26:41.587Z,99865.69
2023-04-15T19:29:08.716Z,99861.31
2023-04-15T19:31:35.569Z,99867.81
2023-04-15T19:34:03.092Z,99870.34
2023-04-15T19:36:31.493Z,99874.47
2023-04-15T19:39:01.049Z,99879.81
2023-04-15T19:41:27.841Z,99885.91
2023-04-15T19:43:54.974Z,99881.47
2023-04-15T19:46:21.864Z,99879.69
2023-04-15T19:48:49.066Z,99886.72
2023-04-15T19:51:15.889Z,99881.38
2023-04-15T19:53:42.964Z,99880.59
2023-04-15T19:56:09.820Z,99885.59
2023-04-15T19:58:37.462Z,99879.59
2023-04-15T20:01:04.311Z,99882.78
2023-04-15T20:03:31.706Z,99881.66
2023-04-15T20:05:58.700Z,99895.59
2023-04-15T20:08:25.803Z,99898.00
2023-04-15T20:10:52.589Z,99899.06
2023-04-15T20:13:19.632Z,99906.84
2023-04-15T20:15:46.522Z,99899.91
2023-04-15T20:18:13.576Z,99898.88
2023-04-15T20:20:40.784Z,99899.91
2023-04-15T20:23:07.885Z,99906.00
2023-04-15T20:25:37.796Z,99901.69
2023-04-15T20:28:04.878Z,99906.84
2023-04-15T20:30:31.795Z,99898.66
2023-04-15T20:32:59.568Z,99909.13
2023-04-15T20:35:30.689Z,99904.13
2023-04-15T20:37:57.848Z,99901.41
2023-04-15T20:40:24.585Z,99904.03
2023-04-15T20:42:51.800Z,99910.97
2023-04-15T20:45:18.680Z,99919.16
2023-04-15T20:47:47.009Z,99921.19
2023-04-15T20:50:13.828Z,99916.03
2023-04-15T20:52:40.943Z,99915.94
2023-04-15T20:55:08.221Z,99921.28
2023-04-15T20:57:35.462Z,99921.19
2023-04-15T21:00:02.371Z,99918.75
2023-04-15T21:02:29.542Z,99928.22
2023-04-15T21:04:59.161Z,99931.13
2023-04-15T21:07:26.309Z,99931.22
2023-04-15T21:09:53.184Z,99939.31
2023-04-15T21:12:20.484Z,99940.34
2023-04-15T21:14:47.280Z,99949.34
2023-04-15T21:17:14.432Z,99945.88
2023-04-15T21:19:41.245Z,99940.44
2023-04-15T21:22:08.561Z,99952.84
2023-04-15T21:24:35.500Z,99956.66
2023-04-15T21:27:02.702Z,99961.31
2023-04-15T21:29:29.676Z,99957.66
2023-04-15T21:31:56.870Z,99960.38
2023-04-15T21:34:23.832Z,99967.31
2023-04-15T21:36:50.969Z,99962.25
2023-04-15T21:39:17.946Z,99965.72
2023-04-15T21:41:45.085Z,99974.72
2023-04-15T21:44:14.462Z,99979.91
2023-04-15T21:46:42.289Z,99977.00
2023-04-15T21:49:13.153Z,99986.25
2023-04-15T21:51:40.332Z,99982.09
2023-04-15T21:54:07.179Z,99982.84
2023-04-15T21:56:34.380Z,99977.03
2023-04-15T21:59:01.447Z,99987.59
2023-04-15T22:01:28.655Z,99984.97
2023-04-15T22:03:55.735Z,99986.59
2023-04-15T22:06:23.026Z,99987.59
2023-04-15T22:09:12.030Z,99989.31
2023-04-15T22:11:37.284Z,99997.53
2023-04-15T22:14:05.286Z,99995.97
2023-04-15T22:16:32.444Z,99995.22
2023-04-15T22:18:59.310Z,100004.78
2023-04-15T22:21:26.867Z,99997.75
2023-04-15T22:24:38.792Z,99997.00
2023-04-15T22:26:40.944Z,100000.03
2023-04-15T22:29:07.797Z,100008.91
2023-04-15T22:31:34.963Z,100003.09
2023-04-15T22:34:01.900Z,99997.41
2023-04-15T22:36:31.185Z,100001.13
2023-04-15T22:38:58.122Z,100012.66
2023-04-15T22:41:25.138Z,100003.16
2023-04-15T22:43:51.902Z,100002.38
2023-04-15T22:46:18.964Z,100011.19
2023-04-15T22:48:45.976Z,100005.25
2023-04-15T22:51:13.021Z,100002.72
2023-04-15T22:53:40.957Z,100001.94
2023-04-15T22:56:08.049Z,100006.19
2023-04-15T22:58:34.921Z,100011.19
2023-04-15T23:01:02.054Z,100005.84
2023-04-15T23:03:29.043Z,100007.53
2023-04-15T23:05:58.537Z,100011.03
2023-04-15T23:08:25.419Z,100009.41
2023-04-15T23:10:52.507Z,100010.25
2023-04-15T23:13:19.313Z,100008.56
2023-04-15T23:15:46.405Z,100012.13
2023-04-15T23:18:13.362Z,100017.38
2023-04-15T23:20:40.812Z,100008.91
2023-04-15T23:23:07.620Z,100009.75
2023-04-15T23:25:34.729Z,100001.94
2023-04-15T23:28:01.572Z,100008.13
2023-04-15T23:30:28.757Z,100007.19
2023-04-15T23:32:55.554Z,100010.66
2023-04-15T23:35:22.684Z,100016.09
2023-04-15T23:37:49.436Z,100016.31
2023-04-15T23:40:16.776Z,100016.41
2023-04-15T23:42:43.633Z,100024.34
2023-04-15T23:45:11.455Z,100019.09
2023-04-15T23:47:40.861Z,100029.75
2023-04-15T23:50:09.020Z,100027.16
2023-04-15T23:52:36.416Z,100033.41
2023-04-15T23:55:04.335Z,100021.44
2023-04-15T23:57:31.502Z,100024.38
2023-04-15T23:59:58.706Z,100027.31
